Adkins, Texas
Current Conditions -  °F | °C
As of 10:58 PM on Tuesday 21 Oct 2014 (Local Time) from KRND Reporting Station
Few Clouds Few Clouds  
Wind Chill: 67°   Ceiling: Unl
Heat Index: 67°   Visibility: 10mi
Dew Point: 47°   Wind: 6mph
Humidity: 49%   Direction: 60°ENE
Pressure: 30.05"   Gusts: NA
Location:  29.39°N, 98.24°W
Report Text: KRND 220358Z AUTO 06005KT 10SM FEW240 19/08 A3005 RMK AO2 SLP170 T01920083
Loading
Personal Weather Stations






























Interactive Weather Map
Tropical Storm Tracking
New forecast layout! Learn more

10-Day Weather Forecast

Advertisements
Track Severe Weather on mobile